createdAt,value
2018-06-11T00:00:48.394Z,22.87
2018-06-11T00:01:48.398Z,22.83
2018-06-11T00:02:48.412Z,23.20
2018-06-11T00:03:48.408Z,23.26
2018-06-11T00:04:48.410Z,23.65
2018-06-11T00:05:48.444Z,23.60
2018-06-11T00:06:48.424Z,23.77
2018-06-11T00:07:48.426Z,23.90
2018-06-11T00:08:48.428Z,23.70
2018-06-11T00:09:48.434Z,23.52
2018-06-11T00:10:48.449Z,23.39
2018-06-11T00:11:48.448Z,23.61
2018-06-11T00:12:48.455Z,23.12
2018-06-11T00:13:48.460Z,22.84
2018-06-11T00:14:48.471Z,23.01
2018-06-11T00:15:48.467Z,22.96
2018-06-11T00:16:48.476Z,22.78
2018-06-11T00:17:48.479Z,22.75
2018-06-11T00:18:48.482Z,22.90
2018-06-11T00:19:48.495Z,22.38
2018-06-11T00:20:48.491Z,22.23
2018-06-11T00:21:48.497Z,22.23
2018-06-11T00:22:48.499Z,22.31
2018-06-11T00:23:48.508Z,22.23
2018-06-11T00:24:48.512Z,22.28
2018-06-11T00:25:48.514Z,22.80
2018-06-11T00:26:48.523Z,22.90
2018-06-11T00:27:48.529Z,22.78
2018-06-11T00:28:48.534Z,23.08
2018-06-11T00:29:48.540Z,22.80
2018-06-11T00:30:48.577Z,22.57
2018-06-11T00:31:48.551Z,22.80
2018-06-11T00:32:48.552Z,22.80
2018-06-11T00:33:48.551Z,23.22
2018-06-11T00:34:48.561Z,23.24
2018-06-11T00:35:48.561Z,23.09
2018-06-11T00:36:48.573Z,23.45
2018-06-11T00:37:48.579Z,23.62
2018-06-11T00:38:48.589Z,23.34
2018-06-11T00:39:48.627Z,22.89
2018-06-11T00:40:48.590Z,22.83
2018-06-11T00:41:48.616Z,22.84
2018-06-11T00:42:48.603Z,23.05
2018-06-11T00:43:48.618Z,23.23
2018-06-11T00:44:48.611Z,23.04
2018-06-11T00:45:48.618Z,23.08
2018-06-11T00:46:48.619Z,22.47
2018-06-11T00:47:48.627Z,22.89
2018-06-11T00:48:48.634Z,22.92
2018-06-11T00:49:48.634Z,22.60
2018-06-11T00:50:48.652Z,22.57
2018-06-11T00:51:48.652Z,22.74
2018-06-11T00:52:48.650Z,22.46
2018-06-11T00:53:48.651Z,22.59
2018-06-11T00:54:48.655Z,22.44
2018-06-11T00:55:48.657Z,22.43
2018-06-11T00:56:48.663Z,22.41
2018-06-11T00:57:48.672Z,22.80
2018-06-11T00:58:48.687Z,22.83
2018-06-11T00:59:48.708Z,22.82
2018-06-11T01:00:48.708Z,22.56
2018-06-11T01:01:48.693Z,22.44
2018-06-11T01:02:48.703Z,22.62
2018-06-11T01:03:48.705Z,22.43
2018-06-11T01:04:48.733Z,22.47
2018-06-11T01:05:48.711Z,22.56
2018-06-11T01:06:48.722Z,22.34
2018-06-11T01:07:48.722Z,22.19
2018-06-11T01:08:48.725Z,22.17
2018-06-11T01:09:48.733Z,22.13
2018-06-11T01:10:48.732Z,21.81
2018-06-11T01:11:48.739Z,21.71
2018-06-11T01:12:48.751Z,22.14
2018-06-11T01:13:48.767Z,22.34
2018-06-11T01:14:48.765Z,22.41
2018-06-11T01:15:48.756Z,22.43
2018-06-11T01:16:48.776Z,22.53
2018-06-11T01:17:48.774Z,22.67
2018-06-11T01:18:48.774Z,22.27
2018-06-11T01:19:49.005Z,22.64
2018-06-11T01:20:48.782Z,22.49
2018-06-11T01:21:48.811Z,22.43
2018-06-11T01:22:48.792Z,22.28
2018-06-11T01:23:48.811Z,22.23
2018-06-11T01:24:48.822Z,22.39
2018-06-11T01:25:48.811Z,22.37
2018-06-11T01:26:48.814Z,21.95
2018-06-11T01:27:48.831Z,22.19
2018-06-11T01:28:48.827Z,22.16
2018-06-11T01:29:48.827Z,22.25
2018-06-11T01:30:48.837Z,22.16
2018-06-11T01:31:48.846Z,22.16
2018-06-11T01:32:48.837Z,21.99
2018-06-11T01:33:48.856Z,21.56
2018-06-11T01:34:49.100Z,21.74
2018-06-11T01:35:48.854Z,21.75
2018-06-11T01:36:48.854Z,21.76
2018-06-11T01:37:48.863Z,21.94
2018-06-11T01:38:48.868Z,21.35
2018-06-11T01:39:48.882Z,21.48
2018-06-11T01:40:48.883Z,21.78
2018-06-11T01:41:48.882Z,21.88
2018-06-11T01:42:48.887Z,22.14
2018-06-11T01:43:48.889Z,22.34
2018-06-11T01:44:48.910Z,22.28
2018-06-11T01:45:48.909Z,22.06
2018-06-11T01:46:48.901Z,21.88
2018-06-11T01:47:48.920Z,22.04
2018-06-11T01:48:48.925Z,22.13
2018-06-11T01:49:48.919Z,21.94
2018-06-11T01:50:48.916Z,21.32
2018-06-11T01:51:48.942Z,21.63
2018-06-11T01:52:48.935Z,21.71
2018-06-11T01:53:48.937Z,21.90
2018-06-11T01:54:48.943Z,21.98
2018-06-11T01:55:48.947Z,22.16
2018-06-11T01:56:48.947Z,21.81
2018-06-11T01:57:48.947Z,22.09
2018-06-11T01:58:48.955Z,22.47
2018-06-11T01:59:48.964Z,22.25
2018-06-11T02:00:48.969Z,22.06
2018-06-11T02:01:48.980Z,22.13
2018-06-11T02:02:48.976Z,21.92
2018-06-11T02:03:48.990Z,21.92
2018-06-11T02:04:48.990Z,21.91
2018-06-11T02:05:48.992Z,21.95
2018-06-11T02:06:48.993Z,22.09
2018-06-11T02:07:48.998Z,22.04
2018-06-11T02:08:49.002Z,22.01
2018-06-11T02:09:49.000Z,21.91
2018-06-11T02:10:49.005Z,21.91
2018-06-11T02:11:49.016Z,21.79
2018-06-11T02:12:49.019Z,21.88
2018-06-11T02:13:49.025Z,21.88
2018-06-11T02:14:49.027Z,21.67
2018-06-11T02:15:49.037Z,22.14
2018-06-11T02:16:49.051Z,21.98
2018-06-11T02:17:49.043Z,21.94
2018-06-11T02:18:49.043Z,21.90
2018-06-11T02:19:49.046Z,22.28
2018-06-11T02:20:49.088Z,22.80
2018-06-11T02:21:49.078Z,22.23
2018-06-11T02:22:49.066Z,22.19
2018-06-11T02:23:49.086Z,22.28
2018-06-11T02:24:49.078Z,22.14
2018-06-11T02:25:49.076Z,22.13
2018-06-11T02:26:49.086Z,21.44
2018-06-11T02:27:49.092Z,21.74
2018-06-11T02:28:49.089Z,21.88
2018-06-11T02:29:49.106Z,21.81
2018-06-11T02:30:49.104Z,21.97
2018-06-11T02:31:49.109Z,21.91
2018-06-11T02:32:49.106Z,22.01
2018-06-11T02:33:49.139Z,21.92
2018-06-11T02:34:49.121Z,21.75
2018-06-11T02:35:49.123Z,21.57
2018-06-11T02:36:49.124Z,21.71
2018-06-11T02:37:49.130Z,21.14
2018-06-11T02:38:49.129Z,21.26
2018-06-11T02:39:49.135Z,21.53
2018-06-11T02:40:49.138Z,21.67
2018-06-11T02:41:49.153Z,21.75
2018-06-11T02:42:49.161Z,21.95
2018-06-11T02:43:49.149Z,21.83
2018-06-11T02:44:49.159Z,21.64
2018-06-11T02:45:49.168Z,21.60
2018-06-11T02:46:49.166Z,21.97
2018-06-11T02:47:49.174Z,21.72
2018-06-11T02:48:49.172Z,21.67
2018-06-11T02:49:49.182Z,21.92
2018-06-11T02:50:49.185Z,21.90
2018-06-11T02:51:49.185Z,21.79
2018-06-11T02:52:49.187Z,22.25
2018-06-11T02:53:49.190Z,22.19
2018-06-11T02:54:49.199Z,21.91
2018-06-11T02:55:49.216Z,21.60
2018-06-11T02:56:49.226Z,20.93
2018-06-11T02:57:49.215Z,21.17
2018-06-11T02:58:49.209Z,21.51
2018-06-11T02:59:49.218Z,21.53
2018-06-11T03:00:49.221Z,21.45
2018-06-11T03:01:49.229Z,21.51
2018-06-11T03:02:49.236Z,21.63
2018-06-11T03:22:52.367Z,21.50
2018-06-11T03:23:52.349Z,21.39
2018-06-11T03:24:52.346Z,21.53
2018-06-11T03:25:52.341Z,21.30
2018-06-11T03:26:52.361Z,21.38
2018-06-11T03:27:52.346Z,21.60
2018-06-11T03:28:52.379Z,21.60
2018-06-11T03:29:52.346Z,21.29
2018-06-11T03:30:52.360Z,21.67
2018-06-11T03:31:52.350Z,21.57
2018-06-11T03:32:52.365Z,21.46
2018-06-11T03:33:52.358Z,21.67
2018-06-11T03:34:52.364Z,21.91
2018-06-11T03:35:52.386Z,21.79
2018-06-11T03:36:52.372Z,21.63
2018-06-11T03:37:52.369Z,21.91
2018-06-11T03:38:52.373Z,21.61
2018-06-11T03:39:52.384Z,21.44
2018-06-11T03:40:52.382Z,21.53
2018-06-11T03:41:52.395Z,21.66
2018-06-11T03:42:52.391Z,21.66
2018-06-11T03:43:52.394Z,21.83
2018-06-11T03:44:52.408Z,22.28
2018-06-11T03:45:52.406Z,21.99
2018-06-11T03:46:52.406Z,21.78
2018-06-11T03:47:52.409Z,21.60
2018-06-11T03:48:52.407Z,21.99
2018-06-11T03:49:52.419Z,22.09
2018-06-11T03:50:52.429Z,22.12
2018-06-11T03:51:52.424Z,21.90
2018-06-11T03:52:52.435Z,22.12
2018-06-11T03:53:52.438Z,22.01
2018-06-11T03:54:52.445Z,21.76
2018-06-11T03:55:52.435Z,21.69
2018-06-11T03:56:52.449Z,21.36
2018-06-11T03:57:52.493Z,21.46
2018-06-11T03:58:52.455Z,21.26
2018-06-11T03:59:52.456Z,21.35
2018-06-11T04:00:52.464Z,21.78
2018-06-11T04:01:52.462Z,21.78
2018-06-11T04:02:52.466Z,21.48
2018-06-11T04:03:52.473Z,21.35
2018-06-11T04:04:52.482Z,21.35
2018-06-11T04:05:52.485Z,21.69
2018-06-11T04:06:52.488Z,21.61
2018-06-11T04:07:52.489Z,21.88
2018-06-11T04:08:52.500Z,21.36
2018-06-11T04:09:52.498Z,21.54
2018-06-11T04:10:52.630Z,21.79
2018-06-11T04:11:52.513Z,21.63
2018-06-11T04:12:52.527Z,21.38
2018-06-11T04:13:52.519Z,21.26
2018-06-11T04:14:52.519Z,21.71
2018-06-11T04:15:52.528Z,21.71
2018-06-11T04:16:52.527Z,22.01
2018-06-11T04:18:01.183Z,21.92
2018-06-11T04:19:45.998Z,21.21
2018-06-11T04:20:45.962Z,21.48
2018-06-11T04:21:45.959Z,22.28
2018-06-11T04:22:45.978Z,22.43
2018-06-11T04:23:45.987Z,22.77
2018-06-11T04:24:45.975Z,22.54
2018-06-11T04:25:45.989Z,22.28
2018-06-11T04:26:45.983Z,22.50
2018-06-11T04:27:45.995Z,22.38
2018-06-11T04:28:45.997Z,22.59
2018-06-11T04:29:45.999Z,22.41
2018-06-11T04:30:46.006Z,22.29
2018-06-11T04:31:46.013Z,22.50
2018-06-11T04:32:46.013Z,22.77
2018-06-11T04:33:46.032Z,22.92
2018-06-11T04:34:46.020Z,22.80
2018-06-11T04:35:46.027Z,22.68
2018-06-11T04:36:46.035Z,22.65
2018-06-11T04:37:46.044Z,22.39
2018-06-11T04:38:46.048Z,22.35
2018-06-11T04:39:46.051Z,22.32
2018-06-11T04:40:46.058Z,22.28
2018-06-11T04:41:46.064Z,22.02
2018-06-11T04:42:46.064Z,21.74
2018-06-11T04:43:46.075Z,21.79
2018-06-11T04:44:46.090Z,22.06
2018-06-11T04:45:46.084Z,22.04
2018-06-11T04:46:46.094Z,22.13
2018-06-11T04:47:46.102Z,22.22
2018-06-11T04:48:46.103Z,22.14
2018-06-11T04:49:46.108Z,22.07
2018-06-11T04:50:46.113Z,21.99
2018-06-11T04:51:46.116Z,21.82
2018-06-11T04:52:46.126Z,21.82
2018-06-11T04:53:46.126Z,21.81
2018-06-11T04:54:46.134Z,21.79
2018-06-11T04:55:46.149Z,21.72
2018-06-11T04:56:46.147Z,21.79
2018-06-11T04:57:46.148Z,21.94
2018-06-11T04:58:46.154Z,22.27
2018-06-11T04:59:46.161Z,22.74
2018-06-11T05:00:46.165Z,23.39
2018-06-11T05:01:46.172Z,23.98
2018-06-11T05:02:46.180Z,24.35
2018-06-11T05:03:46.182Z,24.64
2018-06-11T05:04:46.190Z,24.88
2018-06-11T05:05:46.202Z,24.97
2018-06-11T05:06:46.202Z,25.02
2018-06-11T05:07:46.207Z,25.13
2018-06-11T05:08:46.215Z,25.35
2018-06-11T05:09:46.246Z,25.61
2018-06-11T05:10:46.225Z,25.19
2018-06-11T05:11:46.229Z,24.53
2018-06-11T05:12:46.237Z,24.45
2018-06-11T05:13:46.242Z,24.56
2018-06-11T05:14:46.254Z,24.91
2018-06-11T05:15:46.260Z,25.15
2018-06-11T05:16:46.283Z,25.35
2018-06-11T05:17:46.271Z,25.75
2018-06-11T05:18:46.286Z,25.86
2018-06-11T05:19:46.309Z,25.65
2018-06-11T05:20:46.294Z,25.72
2018-06-11T05:21:46.303Z,26.01
2018-06-11T05:22:46.307Z,25.98
2018-06-11T05:23:46.316Z,25.97
2018-06-11T05:24:46.325Z,25.84
2018-06-11T05:25:46.330Z,25.84
2018-06-11T05:26:46.337Z,25.59
2018-06-11T05:27:46.343Z,25.52
2018-06-11T05:28:46.391Z,25.50
2018-06-11T05:29:46.360Z,25.34
2018-06-11T05:30:46.367Z,25.31
2018-06-11T05:31:46.372Z,25.37
2018-06-11T05:32:46.381Z,25.47
2018-06-11T05:33:46.388Z,25.52
2018-06-11T05:34:46.399Z,25.59
2018-06-11T05:35:46.407Z,25.56
2018-06-11T05:36:46.412Z,25.49
2018-06-11T05:37:46.418Z,25.50
2018-06-11T05:38:46.431Z,25.38
2018-06-11T05:39:46.447Z,25.27
2018-06-11T05:40:46.438Z,25.25
2018-06-11T05:41:46.471Z,25.13
2018-06-11T05:42:46.453Z,25.05
2018-06-11T05:43:46.466Z,25.02
2018-06-11T05:44:46.469Z,25.02
2018-06-11T05:45:46.479Z,25.28
2018-06-11T05:46:46.486Z,25.20
2018-06-11T05:47:46.509Z,25.43
2018-06-11T05:48:46.503Z,25.46
2018-06-11T05:49:46.508Z,25.25
2018-06-11T05:50:46.516Z,25.10
2018-06-11T05:51:46.528Z,25.10
2018-06-11T05:52:46.534Z,24.38
2018-06-11T05:53:46.542Z,24.01
2018-06-11T05:54:46.576Z,24.22
2018-06-11T05:55:46.600Z,24.38
2018-06-11T05:56:46.565Z,24.53
2018-06-11T05:57:46.579Z,24.49
2018-06-11T05:58:46.581Z,24.50
2018-06-11T05:59:46.593Z,24.12
2018-06-11T06:00:46.599Z,23.92
2018-06-11T06:01:46.608Z,24.00
2018-06-11T06:02:46.613Z,24.19
2018-06-11T06:03:46.632Z,24.23
2018-06-11T06:04:46.636Z,24.35
2018-06-11T06:05:46.637Z,24.54
2018-06-11T06:06:46.641Z,24.63
2018-06-11T06:07:46.652Z,24.69
2018-06-11T06:08:46.660Z,24.82
2018-06-11T06:09:46.679Z,24.54
2018-06-11T06:10:46.669Z,24.16
2018-06-11T06:11:46.679Z,24.42
2018-06-11T06:12:46.687Z,24.50
2018-06-11T06:13:46.693Z,24.63
2018-06-11T06:14:46.705Z,24.75
2018-06-11T06:15:46.709Z,24.64
2018-06-11T06:16:46.712Z,24.64
2018-06-11T06:17:46.725Z,24.68
2018-06-11T06:18:46.727Z,24.82
2018-06-11T06:19:46.737Z,24.85
2018-06-11T06:20:46.748Z,24.90
2018-06-11T06:21:46.748Z,24.75
2018-06-11T06:22:46.765Z,24.77
2018-06-11T06:23:46.769Z,24.85
2018-06-11T06:24:46.772Z,24.79
2018-06-11T06:25:46.785Z,24.77
2018-06-11T06:26:46.853Z,24.73
2018-06-11T06:27:46.804Z,24.77
2018-06-11T06:28:46.800Z,24.64
2018-06-11T06:29:46.833Z,24.75
2018-06-11T06:30:46.821Z,24.77
2018-06-11T06:31:46.858Z,24.80
2018-06-11T06:32:46.824Z,24.82
2018-06-11T06:33:46.842Z,24.95
2018-06-11T06:34:46.898Z,25.06
2018-06-11T06:35:46.851Z,25.09
2018-06-11T06:36:46.857Z,25.15
2018-06-11T06:37:46.868Z,25.25
2018-06-11T06:38:46.870Z,25.28
2018-06-11T06:39:46.882Z,25.24
2018-06-11T06:40:46.886Z,25.28
2018-06-11T06:41:46.905Z,25.25
2018-06-11T06:42:46.895Z,25.38
2018-06-11T06:43:46.915Z,25.35
2018-06-11T06:44:46.924Z,25.37
2018-06-11T06:45:46.922Z,25.22
2018-06-11T06:46:46.948Z,25.09
2018-06-11T06:47:46.942Z,25.06
2018-06-11T06:48:46.952Z,25.10
2018-06-11T06:49:46.981Z,25.00
2018-06-11T06:50:46.959Z,24.94
2018-06-11T06:51:46.979Z,24.97
2018-06-11T06:52:46.970Z,24.69
2018-06-11T06:53:46.981Z,24.60
2018-06-11T06:54:46.985Z,24.71
2018-06-11T06:55:46.996Z,24.83
2018-06-11T06:56:47.003Z,24.90
2018-06-11T06:57:47.008Z,24.85
2018-06-11T06:58:47.016Z,24.52
2018-06-11T06:59:47.022Z,24.50
2018-06-11T07:00:47.036Z,24.37
2018-06-11T07:01:47.034Z,24.50
2018-06-11T07:02:47.041Z,24.77
2018-06-11T07:03:47.069Z,24.85
2018-06-11T07:04:47.062Z,24.94
2018-06-11T07:05:47.063Z,24.95
2018-06-11T07:06:47.074Z,24.85
2018-06-11T07:09:18.183Z,24.79
2018-06-11T07:10:16.757Z,25.05
2018-06-11T07:12:01.541Z,24.94
2018-06-11T07:13:01.559Z,25.05
2018-06-11T07:14:01.549Z,25.07
2018-06-11T07:15:01.547Z,25.07
2018-06-11T07:16:01.568Z,24.97
2018-06-11T07:17:01.562Z,25.06
2018-06-11T07:18:01.582Z,25.09
2018-06-11T07:19:01.573Z,25.12
2018-06-11T07:20:01.584Z,25.25
2018-06-11T07:21:01.602Z,25.30
2018-06-11T07:22:01.599Z,25.42
2018-06-11T07:23:01.611Z,25.53
2018-06-11T07:24:01.618Z,25.57
2018-06-11T07:25:01.619Z,25.56
2018-06-11T07:26:01.641Z,25.65
2018-06-11T07:27:01.639Z,25.62
2018-06-11T07:28:01.666Z,25.42
2018-06-11T07:29:01.654Z,25.52
2018-06-11T07:30:01.665Z,25.47
2018-06-11T07:31:01.670Z,25.57
2018-06-11T07:32:01.674Z,25.61
2018-06-11T07:33:01.686Z,25.62
2018-06-11T07:34:01.693Z,25.69
2018-06-11T07:35:01.731Z,25.72
2018-06-11T07:36:01.699Z,25.67
2018-06-11T07:37:01.708Z,25.79
2018-06-11T07:38:01.721Z,25.87
2018-06-11T07:39:01.806Z,25.74
2018-06-11T07:40:01.730Z,25.49
2018-06-11T07:41:01.811Z,25.57
2018-06-11T07:42:01.752Z,25.54
2018-06-11T07:43:01.784Z,25.59
2018-06-11T07:44:01.774Z,25.49
2018-06-11T07:45:01.781Z,25.47
2018-06-11T07:46:01.786Z,25.59
2018-06-11T07:47:01.791Z,25.54
2018-06-11T07:48:01.823Z,25.54
2018-06-11T07:49:01.816Z,25.46
2018-06-11T07:50:01.817Z,25.46
2018-06-11T07:51:01.826Z,25.53
2018-06-11T07:52:01.844Z,25.54
2018-06-11T07:53:01.853Z,25.42
2018-06-11T07:54:01.846Z,25.46
2018-06-11T07:55:01.859Z,25.44
2018-06-11T07:56:01.857Z,25.38
2018-06-11T07:57:01.864Z,25.42
2018-06-11T07:58:01.872Z,25.15
2018-06-11T07:59:01.883Z,25.10
2018-06-11T08:00:01.980Z,25.17
2018-06-11T08:01:01.909Z,25.06
2018-06-11T08:02:01.906Z,25.06
2018-06-11T08:03:01.911Z,24.94
2018-06-11T08:04:01.935Z,25.02
2018-06-11T08:05:01.944Z,25.09
2018-06-11T08:06:01.936Z,25.31
2018-06-11T08:07:01.947Z,25.06
2018-06-11T08:08:01.958Z,25.25
2018-06-11T08:09:10.793Z,25.22
2018-06-11T08:10:55.407Z,25.24
2018-06-11T08:11:55.373Z,25.12
2018-06-11T08:12:55.379Z,25.22
2018-06-11T08:13:55.402Z,25.34
2018-06-11T08:14:55.389Z,25.13
2018-06-11T08:15:55.399Z,25.05
2018-06-11T08:16:55.425Z,25.15
2018-06-11T08:17:55.413Z,25.30
2018-06-11T08:18:55.423Z,25.16
2018-06-11T08:19:55.429Z,25.30
2018-06-11T08:20:55.496Z,25.31
2018-06-11T08:21:55.439Z,25.38
2018-06-11T08:22:55.446Z,25.37
2018-06-11T08:23:55.485Z,25.50
2018-06-11T08:24:55.471Z,25.54
2018-06-11T08:25:55.473Z,25.32
2018-06-11T08:26:55.473Z,25.32
2018-06-11T08:27:55.483Z,25.44
2018-06-11T08:28:55.492Z,25.46
2018-06-11T08:29:55.499Z,25.62
2018-06-11T08:30:55.511Z,25.69
2018-06-11T08:31:55.519Z,25.68
2018-06-11T08:32:55.520Z,25.69
2018-06-11T08:33:55.537Z,25.72
2018-06-11T08:34:55.538Z,25.77
2018-06-11T08:35:55.550Z,25.77
2018-06-11T08:36:55.553Z,25.84
2018-06-11T08:37:55.595Z,25.77
2018-06-11T08:38:55.576Z,25.69
2018-06-11T08:39:55.588Z,25.71
2018-06-11T08:40:55.589Z,25.72
2018-06-11T08:41:55.588Z,25.74
2018-06-11T08:42:55.601Z,25.65
2018-06-11T08:43:55.608Z,25.69
2018-06-11T08:44:55.611Z,25.68
2018-06-11T08:45:55.627Z,25.61
2018-06-11T08:46:55.633Z,25.86
2018-06-11T08:47:55.637Z,25.86
2018-06-11T08:48:55.646Z,25.99
2018-06-11T08:49:55.657Z,26.01
2018-06-11T08:50:55.665Z,26.06
2018-06-11T08:51:55.666Z,26.22
2018-06-11T08:52:55.676Z,26.28
2018-06-11T08:53:55.687Z,26.32
2018-06-11T08:54:55.700Z,26.42
2018-06-11T08:55:55.701Z,26.35
2018-06-11T08:56:55.710Z,26.20
2018-06-11T08:57:55.710Z,26.02
2018-06-11T08:58:55.756Z,26.02
2018-06-11T08:59:55.787Z,25.98
2018-06-11T09:00:55.745Z,25.99
2018-06-11T09:01:55.749Z,26.02
2018-06-11T09:02:55.758Z,25.87
2018-06-11T09:03:55.768Z,25.89
2018-06-11T09:04:55.794Z,25.98
2018-06-11T09:05:55.780Z,25.72
2018-06-11T09:06:55.789Z,25.87
2018-06-11T09:07:55.805Z,25.90
2018-06-11T09:08:55.810Z,26.05
2018-06-11T09:09:55.817Z,25.94
2018-06-11T09:10:55.824Z,26.08
2018-06-11T09:11:55.841Z,26.08
2018-06-11T09:12:55.830Z,26.11
2018-06-11T09:13:55.848Z,26.05
2018-06-11T09:14:55.846Z,26.01
2018-06-11T09:15:55.869Z,25.99
2018-06-11T09:16:55.873Z,25.80
2018-06-11T09:17:55.941Z,25.83
2018-06-11T09:18:55.878Z,25.83
2018-06-11T09:19:55.892Z,26.02
2018-06-11T09:20:55.903Z,25.97
2018-06-11T09:21:55.901Z,26.08
2018-06-11T09:22:55.908Z,26.02
2018-06-11T09:23:55.925Z,25.99
2018-06-11T09:24:55.923Z,26.06
2018-06-11T09:25:55.931Z,26.09
2018-06-11T09:26:55.939Z,26.06
2018-06-11T09:27:55.950Z,25.98
2018-06-11T09:28:55.954Z,26.20
2018-06-11T09:29:55.962Z,26.27
2018-06-11T09:30:56.037Z,26.27
2018-06-11T09:31:55.980Z,26.27
2018-06-11T09:32:55.992Z,26.22
2018-06-11T09:33:56.004Z,26.18
2018-06-11T09:34:56.012Z,26.05
2018-06-11T09:35:56.021Z,26.05
2018-06-11T09:36:56.027Z,26.15
2018-06-11T09:37:56.031Z,26.05
2018-06-11T09:38:56.051Z,26.22
2018-06-11T09:39:56.046Z,26.31
2018-06-11T09:40:56.049Z,26.40
2018-06-11T09:41:56.060Z,26.42
2018-06-11T09:42:56.069Z,26.39
2018-06-11T09:43:56.153Z,26.39
2018-06-11T09:44:56.078Z,26.54
2018-06-11T09:45:56.090Z,26.31
2018-06-11T09:46:56.097Z,26.06
2018-06-11T09:47:56.111Z,26.08
2018-06-11T09:48:56.116Z,26.21
2018-06-11T09:49:56.121Z,26.21
2018-06-11T09:50:56.130Z,26.22
2018-06-11T09:51:56.133Z,26.37
2018-06-11T09:52:56.148Z,26.27
2018-06-11T09:53:56.154Z,26.39
2018-06-11T09:54:56.174Z,26.55
2018-06-11T09:55:56.179Z,26.62
2018-06-11T09:56:56.177Z,26.67
2018-06-11T09:57:56.184Z,26.69
2018-06-11T09:58:56.199Z,26.69
2018-06-11T09:59:56.198Z,26.86
2018-06-11T10:00:56.210Z,26.84
2018-06-11T10:01:56.212Z,26.81
2018-06-11T10:02:56.226Z,26.81
2018-06-11T10:03:56.234Z,26.86
2018-06-11T10:04:56.235Z,26.86
2018-06-11T10:05:56.247Z,26.80
2018-06-11T10:06:56.257Z,26.76
2018-06-11T10:07:56.266Z,26.72
2018-06-11T10:08:56.269Z,26.83
2018-06-11T10:09:56.281Z,26.84
2018-06-11T10:10:56.292Z,26.74
2018-06-11T10:11:56.303Z,26.83
2018-06-11T10:12:56.299Z,26.89
2018-06-11T10:13:56.312Z,26.99
2018-06-11T10:14:56.320Z,27.06
2018-06-11T10:15:56.331Z,27.10
2018-06-11T10:16:56.339Z,27.05
2018-06-11T10:17:56.341Z,27.10
2018-06-11T10:18:56.356Z,26.96
2018-06-11T10:19:56.368Z,26.87
2018-06-11T10:20:56.371Z,26.86
2018-06-11T10:21:56.379Z,27.10
2018-06-11T10:22:56.388Z,26.86
2018-06-11T10:23:56.396Z,26.94
2018-06-11T10:24:56.431Z,27.02
2018-06-11T10:25:56.407Z,27.14
2018-06-11T10:26:56.426Z,27.11
2018-06-11T10:27:56.427Z,27.10
2018-06-11T10:29:05.063Z,27.06
2018-06-11T10:30:50.867Z,27.10
2018-06-11T10:31:50.854Z,27.10
2018-06-11T10:32:50.859Z,27.06
2018-06-11T10:33:50.900Z,27.02
2018-06-11T10:34:50.886Z,27.14
2018-06-11T10:35:50.887Z,27.19
2018-06-11T10:36:50.897Z,27.19
2018-06-11T10:37:50.903Z,27.24
2018-06-11T10:38:50.914Z,27.32
2018-06-11T10:39:50.916Z,27.13
2018-06-11T10:40:50.931Z,27.26
2018-06-11T10:41:50.941Z,27.31
2018-06-11T10:42:50.945Z,27.38
2018-06-11T10:45:11.996Z,27.24
2018-06-11T10:46:11.994Z,27.21
2018-06-11T10:47:11.999Z,27.43
2018-06-11T10:48:12.008Z,27.41
2018-06-11T10:49:12.020Z,27.29
2018-06-11T10:50:12.021Z,27.16
2018-06-11T10:51:20.668Z,27.19
2018-06-11T10:53:05.461Z,27.23
2018-06-11T10:54:05.453Z,27.50
2018-06-11T10:55:05.457Z,27.46
2018-06-11T10:56:05.469Z,27.57
2018-06-11T10:57:05.492Z,27.62
2018-06-11T10:58:05.542Z,27.42
2018-06-11T10:59:05.492Z,27.41
2018-06-11T11:00:05.505Z,27.41
2018-06-11T11:01:05.519Z,27.38
2018-06-11T11:02:05.519Z,27.23
2018-06-11T11:03:05.527Z,27.39
2018-06-11T11:04:05.537Z,27.42
2018-06-11T11:05:05.542Z,27.36
2018-06-11T11:06:05.561Z,27.46
2018-06-11T11:07:05.566Z,27.39
2018-06-11T11:08:05.570Z,27.33
2018-06-11T11:09:05.579Z,27.21
2018-06-11T11:10:05.588Z,27.26
2018-06-11T11:11:05.621Z,27.32
2018-06-11T11:12:05.645Z,26.98
2018-06-11T11:13:05.667Z,27.16
2018-06-11T11:14:05.632Z,27.26
2018-06-11T11:15:05.633Z,27.32
2018-06-11T11:16:05.641Z,27.23
2018-06-11T11:17:05.648Z,27.38
2018-06-11T11:18:05.662Z,27.19
2018-06-11T11:19:05.668Z,27.11
2018-06-11T11:20:05.676Z,27.24
2018-06-11T11:21:05.684Z,27.35
2018-06-11T11:22:05.687Z,27.42
2018-06-11T11:23:05.702Z,27.47
2018-06-11T11:24:05.717Z,27.53
2018-06-11T11:25:05.719Z,27.50
2018-06-11T11:26:05.734Z,27.62
2018-06-11T11:27:05.739Z,27.59
2018-06-11T11:28:05.758Z,27.62
2018-06-11T11:29:05.756Z,27.58
2018-06-11T11:30:05.789Z,27.57
2018-06-11T11:31:05.771Z,27.57
2018-06-11T11:32:05.792Z,27.73
2018-06-11T11:33:05.786Z,27.77
2018-06-11T11:34:05.800Z,27.86
2018-06-11T11:35:05.811Z,27.89
2018-06-11T11:36:05.829Z,27.80
2018-06-11T11:37:05.825Z,27.71
2018-06-11T11:38:05.833Z,27.69
2018-06-11T11:39:05.860Z,27.67
2018-06-11T11:40:05.858Z,27.67
2018-06-11T11:41:05.862Z,27.70
2018-06-11T11:42:05.871Z,27.64
2018-06-11T11:43:05.875Z,27.54
2018-06-11T11:44:05.879Z,27.61
2018-06-11T11:45:05.896Z,27.71
2018-06-11T11:46:05.899Z,27.77
2018-06-11T11:47:05.914Z,27.69
2018-06-11T11:48:05.953Z,27.70
2018-06-11T11:49:05.944Z,27.51
2018-06-11T11:50:05.941Z,27.67
2018-06-11T11:51:05.992Z,27.79
2018-06-11T11:52:05.953Z,27.73
2018-06-11T11:53:05.961Z,27.73
2018-06-11T11:54:05.980Z,27.62
2018-06-11T11:55:05.994Z,27.67
2018-06-11T11:56:06.002Z,27.80
2018-06-11T11:57:05.999Z,27.71
2018-06-11T11:58:06.007Z,27.76
2018-06-11T11:59:06.017Z,27.82
2018-06-11T12:00:06.024Z,27.84
2018-06-11T12:01:06.033Z,27.94
2018-06-11T12:02:06.051Z,28.03
2018-06-11T12:03:06.051Z,28.03
2018-06-11T12:04:06.062Z,28.14
2018-06-11T12:05:06.071Z,28.22
2018-06-11T12:06:06.089Z,27.96
2018-06-11T12:07:06.092Z,27.92
2018-06-11T12:08:06.098Z,27.98
2018-06-11T12:09:06.102Z,27.94
2018-06-11T12:10:06.117Z,27.82
2018-06-11T12:11:06.134Z,27.70
2018-06-11T12:12:06.134Z,27.74
2018-06-11T12:13:06.146Z,27.59
2018-06-11T12:14:06.151Z,27.54
2018-06-11T12:15:06.168Z,27.62
2018-06-11T12:16:06.171Z,27.69
2018-06-11T12:17:06.182Z,27.67
2018-06-11T12:18:06.192Z,27.89
2018-06-11T12:19:06.249Z,27.85
2018-06-11T12:20:06.207Z,27.94
2018-06-11T12:21:06.214Z,27.91
2018-06-11T12:22:06.222Z,28.06
2018-06-11T12:23:06.235Z,28.04
2018-06-11T12:24:06.246Z,27.96
2018-06-11T12:25:06.283Z,28.19
2018-06-11T12:26:06.253Z,28.43
2018-06-11T12:27:06.268Z,28.50
2018-06-11T12:28:06.274Z,28.44
2018-06-11T12:29:06.288Z,28.41
2018-06-11T12:30:06.294Z,28.25
2018-06-11T12:31:06.303Z,28.19
2018-06-11T12:32:06.307Z,28.04
2018-06-11T12:33:06.323Z,28.07
2018-06-11T12:34:06.333Z,28.22
2018-06-11T12:35:06.355Z,28.10
2018-06-11T12:36:06.348Z,28.01
2018-06-11T12:37:06.391Z,28.10
2018-06-11T12:38:06.368Z,28.09
2018-06-11T12:39:06.379Z,28.01
2018-06-11T12:40:06.409Z,28.09
2018-06-11T12:41:06.405Z,28.03
2018-06-11T12:42:06.408Z,28.09
2018-06-11T12:43:06.413Z,28.09
2018-06-11T12:44:06.422Z,28.14
2018-06-11T12:45:06.443Z,28.01
2018-06-11T12:46:06.439Z,27.94
2018-06-11T12:47:06.453Z,27.92
2018-06-11T12:48:06.459Z,27.67
2018-06-11T12:49:06.469Z,27.86
2018-06-11T12:50:06.475Z,27.69
2018-06-11T12:51:06.481Z,27.80
2018-06-11T12:52:06.500Z,27.71
2018-06-11T12:53:06.496Z,27.77
2018-06-11T12:54:06.521Z,27.77
2018-06-11T12:55:06.519Z,27.88
2018-06-11T12:56:06.525Z,27.79
2018-06-11T12:57:06.541Z,27.86
2018-06-11T12:58:06.543Z,27.59
2018-06-11T12:59:06.555Z,27.57
2018-06-11T13:00:06.566Z,27.38
2018-06-11T13:01:06.588Z,27.46
2018-06-11T13:02:06.574Z,27.50
2018-06-11T13:03:06.585Z,27.57
2018-06-11T13:04:06.598Z,27.48
2018-06-11T13:05:06.609Z,27.58
2018-06-11T13:06:06.619Z,27.64
2018-06-11T13:07:06.619Z,27.58
2018-06-11T13:08:06.629Z,27.46
2018-06-11T13:09:06.635Z,27.46
2018-06-11T13:10:06.654Z,27.53
2018-06-11T13:11:06.663Z,27.53
2018-06-11T13:12:06.672Z,27.51
2018-06-11T13:13:06.682Z,27.41
2018-06-11T13:14:06.758Z,27.51
2018-06-11T13:15:06.694Z,27.58
2018-06-11T13:16:06.727Z,27.59
2018-06-11T13:17:06.704Z,27.58
2018-06-11T13:18:06.721Z,27.57
2018-06-11T13:19:06.724Z,27.41